Forside
METAR-TAF:

METAR-TAF

Lufthavne :

New Delhi, Indien

Breddekreds: 28-34N, længdekreds: 077-07E, højde: 220 m

Aktuelle vejr

Denne rapport blev lavet for 23 minutter siden, kl. 17:00 UTC
Vind 6 kt fra vestnordvest
Temperatur 22°C
Fugtighed 53%
Tryk 1014 hPa
Sigt: 3200 m
Nogle få skyer i en højde af 10000 ft
tåge/dis

METAR: VIDP 231700Z 30006KT 3200 HZ FEW100 22/12 Q1014 NOSIG

Tid: 22:53 (17:23 UTC)

Vejrudsigter

Denne rapport blev lavet for 3 timer og 23 minutter siden, kl. 14:00 UTC
Foreløbig gælder fra 23 på 15 UTC til 23 på 24 UTC
Vind 7 kt fra nordvest
Sigt: 3500 m
tåge/dis
ændring
fra 23 på 21 UTC til 23 på 23 UTC
Vind 4 kt fra vest
Sigt: 2500 m
tåge/dis

TAF: VIDP 231400Z 2315/2324 32007KT 3500 HZ NSC BECMG 2321/2323 26004KT 2500 HZ

Vejrobservationer og prognoser fra mere end 4000 lufthavne (METAR og TAF).

De gule og røde prikker repræsenterer de meteorologiske stationer.

Flyt musen over at se navnet på stationen.

Så klik over at se vejr observationer og prognoser.

At skifte det kort: Klik på de grønne knapper med et sort kors for at zoome ind; på den grønne knap med en bindestreg for at zoome ud; eller på de grønne pile for tilstødende kort.


METAR-TAF: